Fairfield, Ohio
Current Conditions -  °F | °C
As of 8:45 PM on Thursday 27 Nov 2014 (Local Time) from KHAO Reporting Station
Overcast Overcast  
Wind Chill: 23°   Ceiling: 3000
Heat Index: 30°   Visibility: 10mi
Dew Point: 19°   Wind: 7mph
Humidity: 64%   Direction: 280°W
Pressure: 30.4"   Gusts: NA
Location:  39.33°N, 84.56°W
Report Text: KHAO 280145Z AUTO 28006KT 10SM OVC030 M01/M07 A3040 RMK AO2 T10111072
Loading
Personal Weather Stations






























Interactive Weather Map New forecast layout! Learn more

10-Day Weather Forecast

Advertisements
Track Severe Weather on mobile